Biotrans — JWPN — position and weather

sailwx.info

Track history (hours):
 
Tides and Currents Weather Stations Pressure Air Temp Water Temp Dewpoint Dewpoint Depression Visibility Wind Speed Wind Dir Waves Ship Positions

Biotrans

Last reported at 2018-Apr-26 17:00 UTC. Time now 2018-Apr-26 17:05 UTC.
Position N 63°34' E 009°21'.

Length 55 m; draft 5.5 m.

Type: Cargo ship. MMSI: 259260000.

Date/timePositionNaut miles runAvg speedWind from/ knotsBaromVisibWave heightAir tempDewpointWater temp
2018-Apr-26 17:00N 63°34' E 009°21'4 8.8
2018-Apr-26 16:30N 63°37' E 009°28'510.0
2018-Apr-26 16:00N 63°42' E 009°30'5 9.3
2018-Apr-26 15:29N 63°45' E 009°39'3 6.3
2018-Apr-26 14:59N 63°46' E 009°46'0 0.0
2018-Apr-26 14:30N 63°46' E 009°46'0 0.0
2018-Apr-26 13:59N 63°46' E 009°46'0 0.0
2018-Apr-26 13:30N 63°46' E 009°46'0 0.0
2018-Apr-26 13:00N 63°46' E 009°46'0 0.0
2018-Apr-26 12:30N 63°46' E 009°46'0 0.0
2018-Apr-26 12:00N 63°46' E 009°46'0 0.0
2018-Apr-26 11:30N 63°46' E 009°46'0 0.0
2018-Apr-26 11:00N 63°46' E 009°46'0 0.0
2018-Apr-26 10:29N 63°46' E 009°46'0 0.0
2018-Apr-26 09:59N 63°46' E 009°46'0 0.0
2018-Apr-26 09:29N 63°46' E 009°46'0 0.0
2018-Apr-26 09:00N 63°46' E 009°46'0 0.0
2018-Apr-26 08:30N 63°46' E 009°46'0 0.0
2018-Apr-26 08:00N 63°46' E 009°46'0 0.0
2018-Apr-26 07:29N 63°46' E 009°46'0 0.2
2018-Apr-26 06:59N 63°46' E 009°45'0 0.0
2018-Apr-26 06:28N 63°46' E 009°45'0 0.0
2018-Apr-26 06:00N 63°46' E 009°45'0 0.0
2018-Apr-26 05:30N 63°46' E 009°45'0 0.0
2018-Apr-26 05:00N 63°46' E 009°45'0 0.0
2018-Apr-26 04:29N 63°46' E 009°45'0 0.0
2018-Apr-26 04:00N 63°46' E 009°45'0 0.0
2018-Apr-26 03:30N 63°46' E 009°45'0 0.0
2018-Apr-26 03:00N 63°46' E 009°45'0 0.0
2018-Apr-26 02:30N 63°46' E 009°45'0 0.0
2018-Apr-26 01:58N 63°46' E 009°45'0 0.0
2018-Apr-26 01:30N 63°46' E 009°45'0 0.0
2018-Apr-26 01:00N 63°46' E 009°45'0 0.0
2018-Apr-26 00:30N 63°46' E 009°45'0 0.5
2018-Apr-26 00:00N 63°46' E 009°45'0 0.4
2018-Apr-25 23:30N 63°46' E 009°44'0 0.0
2018-Apr-25 23:00N 63°46' E 009°44'0 0.0
2018-Apr-25 22:29N 63°46' E 009°44'0 0.1
2018-Apr-25 22:00N 63°46' E 009°44'0 0.2
2018-Apr-25 21:29N 63°46' E 009°44'1 1.9
2018-Apr-25 21:00N 63°45' E 009°42'4 7.8
2018-Apr-25 20:30N 63°45' E 009°33'4 8.3
2018-Apr-25 20:00N 63°49' E 009°36'5 9.1
2018-Apr-25 19:30N 63°52' E 009°43'4 8.6
2018-Apr-25 19:00N 63°54' E 009°51'1 2.0
2018-Apr-25 18:30N 63°53' E 009°52'0 0.0
2018-Apr-25 18:00N 63°53' E 009°52'0 0.0
2018-Apr-25 17:30N 63°53' E 009°52'0 0.0
2018-Apr-25 17:00N 63°53' E 009°52'0 0.0
2018-Apr-25 16:30N 63°53' E 009°52'0 0.0
2018-Apr-25 16:00N 63°53' E 009°52'0 0.0
2018-Apr-25 15:30N 63°53' E 009°52'0 0.0
2018-Apr-25 15:00N 63°53' E 009°52'0 0.0
2018-Apr-25 14:30N 63°53' E 009°52'0 0.0
2018-Apr-25 14:00N 63°53' E 009°52'0 0.0
2018-Apr-25 13:30N 63°53' E 009°52'0 0.1
2018-Apr-25 13:00N 63°53' E 009°52'3 6.5
2018-Apr-25 12:29N 63°57' E 009°54'510.1
2018-Apr-25 12:00N 64°01' E 009°59'4 7.4
2018-Apr-25 11:30N 64°04' E 010°01'4 8.6
2018-Apr-25 11:00N 64°08' E 010°06'4 8.7
2018-Apr-25 10:30N 64°12' E 010°11'4 8.6
2018-Apr-25 10:00N 64°15' E 010°18'4 7.9
2018-Apr-25 09:30N 64°18' E 010°23'4 7.9
2018-Apr-25 09:00N 64°22' E 010°27'4 8.0
2018-Apr-25 08:30N 64°26' E 010°27'3 6.3
2018-Apr-25 08:00N 64°28' E 010°31'3 6.8
2018-Apr-25 07:30N 64°31' E 010°35'3 6.6
2018-Apr-25 07:00N 64°34' E 010°38'3 6.3
2018-Apr-25 06:30N 64°37' E 010°42'3 6.0
2018-Apr-25 05:59N 64°40' E 010°46'2 4.9
2018-Apr-25 05:30N 64°41' E 010°50'2 4.7
2018-Apr-25 05:00N 64°43' E 010°54'3 6.2
2018-Apr-25 04:29N 64°45' E 010°60'4 7.4
2018-Apr-25 04:00N 64°47' E 011°05'4 7.8
2018-Apr-25 03:30N 64°50' E 011°12'3 6.8
2018-Apr-25 03:00N 64°53' E 011°17'4 7.5
2018-Apr-25 02:30N 64°55' E 011°24'4 7.8
2018-Apr-25 02:00N 64°57' E 011°31'4 8.0
2018-Apr-25 01:30N 65°00' E 011°38'4 7.8
2018-Apr-25 01:00N 65°03' E 011°44'4 8.1
2018-Apr-25 00:30N 65°07' E 011°49'4 8.5
2018-Apr-25 00:00N 65°11' E 011°51'4 8.2
2018-Apr-24 23:30N 65°15' E 011°55'4 7.9
2018-Apr-24 23:00N 65°18' E 011°59'4 7.9
2018-Apr-24 22:30N 65°22' E 012°04'4 7.3
2018-Apr-24 22:00N 65°24' E 011°58'4 6.9
2018-Apr-24 21:30N 65°28' E 011°57'4 7.7
2018-Apr-24 21:00N 65°31' E 012°01'4 7.6
2018-Apr-24 20:30N 65°34' E 012°07'4 7.8
2018-Apr-24 20:00N 65°38' E 012°12'4 8.0
2018-Apr-24 19:30N 65°41' E 012°15'4 7.8
2018-Apr-24 18:58N 65°45' E 012°18'4 8.0
2018-Apr-24 18:30N 65°49' E 012°21'4 8.6
2018-Apr-24 17:59N 65°53' E 012°22'3 6.6
2018-Apr-24 17:30N 65°57' E 012°22'4 8.4
2018-Apr-24 17:00N 65°55' E 012°13'0 0.7
2018-Apr-24 16:30N 65°54' E 012°13'0 0.0
2018-Apr-24 16:00N 65°54' E 012°13'0 0.7
2018-Apr-24 15:29N 65°55' E 012°13'4 8.7
2018-Apr-24 14:59N 65°57' E 012°22'4 8.9
2018-Apr-24 14:30N 65°60' E 012°30'5 9.0
2018-Apr-24 14:00N 66°03' E 012°38'5 9.2
2018-Apr-24 13:30N 66°07' E 012°45'5 9.3
2018-Apr-24 13:00N 66°11' E 012°50'5 9.5
2018-Apr-24 12:30N 66°15' E 012°55'5 9.4
2018-Apr-24 12:00N 66°20' E 012°56'4 8.8
2018-Apr-24 11:30N 66°24' E 012°58'510.0
2018-Apr-24 11:00N 66°29' E 012°59'4 8.7
2018-Apr-24 10:30N 66°33' E 013°03'5 9.2
2018-Apr-24 10:00N 66°38' E 013°05'4 8.6
2018-Apr-24 09:30N 66°42' E 013°09'4 8.6
2018-Apr-24 09:00N 66°46' E 013°13'5 9.1
2018-Apr-24 08:30N 66°50' E 013°16'4 8.9
2018-Apr-24 08:00N 66°53' E 013°24'4 8.1
2018-Apr-24 07:30N 66°57' E 013°29'4 8.6
2018-Apr-24 07:00N 66°60' E 013°37'5 9.2
2018-Apr-24 06:30N 67°02' E 013°47'4 7.1
2018-Apr-24 06:01N 67°05' E 013°52'0 0.8
2018-Apr-24 05:30N 67°05' E 013°51'0 0.3
2018-Apr-24 05:00N 67°05' E 013°51'4 7.5
2018-Apr-24 04:30N 67°07' E 013°60'4 7.9
2018-Apr-24 04:00N 67°10' E 014°04'4 8.0
2018-Apr-24 03:30N 67°14' E 014°09'4 8.0
2018-Apr-24 03:00N 67°17' E 014°15'4 8.3
2018-Apr-24 02:30N 67°21' E 014°21'4 7.9
2018-Apr-24 02:00N 67°24' E 014°26'4 8.1
2018-Apr-24 01:30N 67°28' E 014°29'4 8.1
2018-Apr-24 01:00N 67°32' E 014°30'4 8.1
2018-Apr-24 00:30N 67°36' E 014°30'4 8.1
2018-Apr-24 00:00N 67°40' E 014°31'4 8.2
2018-Apr-23 23:30N 67°44' E 014°31'4 7.8
2018-Apr-23 23:00N 67°48' E 014°32'4 8.4
2018-Apr-23 22:30N 67°51' E 014°40'4 8.0
2018-Apr-23 22:00N 67°55' E 014°45'4 8.2
2018-Apr-23 21:30N 67°58' E 014°51'4 8.6
2018-Apr-23 21:00N 68°01' E 015°00'5 9.0
2018-Apr-23 20:30N 68°03' E 015°11'3 6.1
2018-Apr-23 20:00N 68°00' E 015°16'0 0.0
2018-Apr-23 19:30N 68°00' E 015°16'0 0.8
2018-Apr-23 19:00N 68°00' E 015°16'2 3.5
2018-Apr-23 18:30N 68°01' E 015°20'0 0.0
2018-Apr-23 18:00N 68°01' E 015°20'0 0.0
2018-Apr-23 17:30N 68°01' E 015°20'2 3.3
2018-Apr-23 17:00N 68°02' E 015°17'4 8.9
2018-Apr-23 16:29N 68°06' E 015°15'4 9.2
2018-Apr-23 16:00N 68°09' E 015°24'5 9.1
2018-Apr-23 15:30N 68°12' E 015°34'4 8.5
2018-Apr-23 15:00N 68°15' E 015°43'4 8.2
2018-Apr-23 14:30N 68°18' E 015°50'4 8.3
2018-Apr-23 14:00N 68°21' E 015°58'4 7.9
2018-Apr-23 13:30N 68°24' E 016°02'4 8.3
2018-Apr-23 13:00N 68°28' E 016°06'4 8.5
2018-Apr-23 12:30N 68°32' E 016°12'510.6
2018-Apr-23 12:00N 68°33' E 016°26'5 9.3
2018-Apr-23 11:30N 68°37' E 016°34'5 9.0
2018-Apr-23 11:00N 68°41' E 016°40'5 9.1
2018-Apr-23 10:30N 68°45' E 016°45'4 8.9
2018-Apr-23 10:00N 68°49' E 016°51'4 8.9
2018-Apr-23 09:30N 68°53' E 016°58'5 9.1
2018-Apr-23 09:00N 68°56' E 017°05'5 9.0
2018-Apr-23 08:29N 68°60' E 017°14'4 9.3
2018-Apr-23 08:00N 69°04' E 017°21'4 8.7
2018-Apr-23 07:30N 69°06' E 017°30'5 9.2
2018-Apr-23 07:00N 69°08' E 017°42'5 9.3
2018-Apr-23 06:29N 69°10' E 017°55'3 6.2
2018-Apr-23 05:58N 69°13' E 017°58'4 8.6
2018-Apr-23 05:30N 69°17' E 017°58'4 8.4
2018-Apr-23 05:00N 69°21' E 018°04'4 8.5
2018-Apr-23 04:30N 69°25' E 018°07'4 8.6
2018-Apr-23 04:00N 69°29' E 018°10'5 9.1
2018-Apr-23 03:29N 69°31' E 018°22'4 9.0
2018-Apr-23 03:00N 69°32' E 018°34'4 7.7
2018-Apr-23 02:30N 69°33' E 018°45'4 7.3
2018-Apr-23 02:00N 69°36' E 018°52'4 8.3
2018-Apr-23 01:30N 69°39' E 018°59'4 8.8
2018-Apr-23 01:00N 69°43' E 019°04'4 8.5
2018-Apr-23 00:30N 69°46' E 019°13'5 9.0
2018-Apr-22 23:59N 69°48' E 019°25'4 9.1
2018-Apr-22 23:30N 69°50' E 019°37'5 9.3
2018-Apr-22 23:00N 69°52' E 019°48'5 9.5
2018-Apr-22 22:30N 69°55' E 019°59'5 9.5
2018-Apr-22 22:00N 69°58' E 020°10'5 9.3
2018-Apr-22 21:30N 70°00' E 020°22'5 9.6
2018-Apr-22 21:00N 70°01' E 020°36'5 9.5
2018-Apr-22 20:30N 70°03' E 020°49'4 9.0
2018-Apr-22 20:00N 70°06' E 020°58'5 9.8
2018-Apr-22 19:30N 70°11' E 021°04'510.0
2018-Apr-22 19:00N 70°15' E 021°12'510.2
2018-Apr-22 18:30N 70°18' E 021°24'5 9.5
2018-Apr-22 18:00N 70°21' E 021°34'4 8.7
2018-Apr-22 17:30N 70°24' E 021°44'5 9.0
2018-Apr-22 17:00N 70°25' E 021°57'5 9.0
2018-Apr-22 16:30N 70°26' E 022°10'4 8.9
2018-Apr-22 16:00N 70°27' E 022°23'5 9.6
2018-Apr-22 15:30N 70°29' E 022°37'5 9.6
2018-Apr-22 14:59N 70°30' E 022°51'4 8.8
2018-Apr-22 14:30N 70°32' E 023°02'5 9.0
2018-Apr-22 13:58N 70°35' E 023°13'4 9.4
2018-Apr-22 13:30N 70°38' E 023°24'5 9.2
2018-Apr-22 13:00N 70°38' E 023°37'1 1.8
2018-Apr-22 12:30N 70°38' E 023°40'0 0.0
2018-Apr-22 12:00N 70°38' E 023°40'0 0.0
2018-Apr-22 11:30N 70°38' E 023°40'0 0.0
2018-Apr-22 11:00N 70°38' E 023°40'0 0.0
2018-Apr-22 10:30N 70°38' E 023°40'0 0.0
2018-Apr-22 10:00N 70°38' E 023°40'0 0.0
2018-Apr-22 09:29N 70°38' E 023°40'0 0.0
2018-Apr-22 09:00N 70°38' E 023°40'0 0.0
2018-Apr-22 08:30N 70°38' E 023°40'0 0.3
2018-Apr-22 08:00N 70°38' E 023°40'3 6.9
2018-Apr-22 07:30N 70°41' E 023°34'4 8.7
2018-Apr-22 07:00N 70°45' E 023°39'4 8.9
2018-Apr-22 06:30N 70°48' E 023°48'5 9.3
2018-Apr-22 06:00N 70°52' E 023°59'4 8.9
2018-Apr-22 05:30N 70°54' E 024°09'4 8.6
2018-Apr-22 05:00N 70°57' E 024°18'5 9.3
2018-Apr-22 04:29N 71°01' E 024°29'4 7.8
2018-Apr-22 04:00N 71°01' E 024°40'4 8.0
2018-Apr-22 03:29N 70°60' E 024°52'4 8.2
2018-Apr-22 02:59N 70°59' E 025°05'4 8.7
2018-Apr-22 02:29N 70°59' E 025°18'4 8.0
2018-Apr-22 02:00N 70°57' E 025°28'4 7.4
2018-Apr-22 01:30N 70°54' E 025°32'2 4.9
2018-Apr-22 01:00N 70°52' E 025°27'0 0.1
2018-Apr-22 00:30N 70°52' E 025°27'4 7.7
2018-Apr-22 00:00N 70°55' E 025°33'3 6.8
2018-Apr-21 23:30N 70°58' E 025°26'4 8.9
2018-Apr-21 23:00N 70°59' E 025°13'5 9.1
2018-Apr-21 22:28N 70°59' E 024°59'4 8.8
2018-Apr-21 22:00N 71°00' E 024°46'4 8.5
2018-Apr-21 21:30N 71°02' E 024°34'4 8.8
2018-Apr-21 21:00N 70°58' E 024°27'5 9.5
2018-Apr-21 20:30N 70°54' E 024°21'5 9.3
2018-Apr-21 20:00N 70°50' E 024°13'5 9.5
2018-Apr-21 19:28N 70°45' E 024°12'4 9.1
2018-Apr-21 19:00N 70°40' E 024°10'5 9.2
2018-Apr-21 18:30N 70°36' E 024°08'2 4.0
2018-Apr-21 17:59N 70°34' E 024°04'0 0.4
2018-Apr-21 17:30N 70°34' E 024°04'5 9.2
2018-Apr-21 16:58N 70°30' E 023°55'5 9.7
2018-Apr-21 16:29N 70°29' E 023°42'1 2.7
2018-Apr-21 16:00N 70°29' E 023°38'1 2.5
2018-Apr-21 15:29N 70°27' E 023°39'4 8.5
2018-Apr-21 14:59N 70°24' E 023°34'5 9.3
2018-Apr-21 14:30N 70°20' E 023°26'510.3
2018-Apr-21 14:00N 70°16' E 023°16'4 8.5
2018-Apr-21 13:29N 70°13' E 023°09'511.0
2018-Apr-21 13:00N 70°07' E 023°07'611.0
2018-Apr-21 12:29N 70°02' E 023°08'5 9.2
2018-Apr-21 11:59N 69°57' E 023°06'0 0.2
2018-Apr-21 11:30N 69°57' E 023°06'0 0.0
2018-Apr-21 11:00N 69°57' E 023°06'0 0.0
2018-Apr-21 10:29N 69°57' E 023°06'0 0.2
2018-Apr-21 10:00N 69°57' E 023°06'3 6.8
2018-Apr-21 09:30N 70°00' E 023°08'4 8.5
2018-Apr-21 08:59N 70°05' E 023°05'4 8.5
2018-Apr-21 08:29N 70°09' E 023°02'4 8.1
2018-Apr-21 08:00N 70°12' E 022°57'5 8.8
2018-Apr-21 07:29N 70°14' E 022°44'4 8.4
2018-Apr-21 07:00N 70°15' E 022°33'4 8.4
2018-Apr-21 06:30N 70°16' E 022°21'5 9.3
2018-Apr-21 05:59N 70°11' E 022°17'2 4.7
2018-Apr-21 05:30N 70°09' E 022°19'0 0.1
2018-Apr-21 05:00N 70°09' E 022°19'2 3.4
2018-Apr-21 04:30N 70°08' E 022°14'0 0.8
2018-Apr-21 04:00N 70°09' E 022°15'4 8.9
2018-Apr-21 03:30N 70°13' E 022°18'4 8.5
2018-Apr-21 03:00N 70°17' E 022°18'5 9.3
2018-Apr-21 02:30N 70°19' E 022°06'4 8.0
2018-Apr-21 02:00N 70°19' E 021°54'5 9.2
2018-Apr-21 01:29N 70°16' E 021°45'2 5.0
2018-Apr-21 01:00N 70°13' E 021°43'0 0.0
2018-Apr-21 00:30N 70°13' E 021°43'1 1.7
2018-Apr-21 00:00N 70°14' E 021°44'1 1.8
2018-Apr-20 23:29N 70°15' E 021°43'0 0.1
2018-Apr-20 22:58N 70°15' E 021°42'3 6.6
2018-Apr-20 22:30N 70°18' E 021°39'3 6.8
2018-Apr-20 22:00N 70°20' E 021°34'4 8.7
2018-Apr-20 21:30N 70°18' E 021°24'4 8.7
2018-Apr-20 21:00N 70°15' E 021°13'4 7.5
2018-Apr-20 20:30N 70°11' E 021°12'5 9.0
2018-Apr-20 20:00N 70°08' E 021°21'5 9.1
2018-Apr-20 19:30N 70°05' E 021°31'6 9.0
2018-Apr-20 18:47N 70°01' E 021°46'3 9.0
2018-Apr-20 18:30N 69°59' E 021°50'2 2.4
2018-Apr-20 17:41N 69°57' E 021°53'1 5.1
2018-Apr-20 17:28N 69°58' E 021°50'4 7.6
2018-Apr-20 16:57N 69°59' E 021°39'4 8.5
2018-Apr-20 16:30N 70°01' E 021°29'4 8.1
2018-Apr-20 16:00N 70°02' E 021°18'4 7.8
2018-Apr-20 15:30N 70°03' E 021°07'4 8.1
2018-Apr-20 14:59N 70°03' E 020°55'5 9.9
2018-Apr-20 14:30N 70°02' E 020°42'5 9.2
2018-Apr-20 14:00N 70°00' E 020°29'5 9.2
2018-Apr-20 13:30N 69°59' E 020°16'5 9.1
2018-Apr-20 13:00N 69°57' E 020°05'4 8.9
2018-Apr-20 12:30N 69°54' E 019°55'510.2
2018-Apr-20 12:00N 69°51' E 019°43'610.9
2018-Apr-20 11:29N 69°49' E 019°28'511.2
2018-Apr-20 11:00N 69°46' E 019°13'5 9.3
2018-Apr-20 10:30N 69°43' E 019°04'5 9.2
2018-Apr-20 09:59N 69°39' E 018°58'4 8.9
2018-Apr-20 09:30N 69°35' E 018°51'4 8.6
2018-Apr-20 09:00N 69°33' E 018°41'4 8.7
2018-Apr-20 08:30N 69°32' E 018°29'4 8.6
2018-Apr-20 08:00N 69°31' E 018°17'4 7.6
2018-Apr-20 07:30N 69°31' E 018°06'4 7.9
2018-Apr-20 07:00N 69°34' E 017°58'4 7.8
2018-Apr-20 06:30N 69°37' E 017°50'4 7.6
2018-Apr-20 05:59N 69°38' E 017°40'4 8.5
2018-Apr-20 05:30N 69°37' E 017°28'4 8.4
2018-Apr-20 04:59N 69°33' E 017°27'4 9.0
2018-Apr-20 04:30N 69°29' E 017°34'1 1.1
2018-Apr-20 04:00N 69°29' E 017°34'0 0.0
2018-Apr-20 03:30N 69°29' E 017°34'1 2.0
2018-Apr-20 02:59N 69°28' E 017°36'0 0.0
2018-Apr-20 02:30N 69°28' E 017°36'0 0.0
2018-Apr-20 02:00N 69°28' E 017°36'3 6.8
2018-Apr-20 01:30N 69°31' E 017°31'4 9.0
2018-Apr-20 01:00N 69°33' E 017°20'5 8.9
2018-Apr-20 00:29N 69°33' E 017°07'4 9.0
2018-Apr-20 00:00N 69°31' E 016°56'4 8.6
2018-Apr-19 23:30N 69°27' E 016°50'4 8.5
2018-Apr-19 23:00N 69°23' E 016°49'4 8.8
2018-Apr-19 22:29N 69°18' E 016°50'4 8.8
2018-Apr-19 22:00N 69°14' E 016°52'4 8.6
2018-Apr-19 21:29N 69°10' E 016°50'4 9.0
2018-Apr-19 21:00N 69°05' E 016°46'4 8.5
2018-Apr-19 20:30N 69°01' E 016°48'4 8.6
2018-Apr-19 19:59N 68°60' E 016°59'4 8.9
2018-Apr-19 19:29N 69°00' E 017°12'3 5.2
2018-Apr-19 19:00N 69°02' E 017°16'0 0.3
2018-Apr-19 18:30N 69°02' E 017°16'3 6.9
2018-Apr-19 17:59N 68°59' E 017°10'4 8.9
2018-Apr-19 17:30N 68°58' E 016°59'5 9.0
2018-Apr-19 17:00N 68°56' E 016°47'1 2.8
2018-Apr-19 16:29N 68°56' E 016°43'2 3.8
2018-Apr-19 16:00N 68°54' E 016°41'5 9.2
2018-Apr-19 15:30N 68°50' E 016°37'2 4.9
2018-Apr-19 15:00N 68°48' E 016°34'0 0.0
2018-Apr-19 14:30N 68°48' E 016°34'0 0.0
2018-Apr-19 14:00N 68°48' E 016°34'1 2.1
2018-Apr-19 13:30N 68°47' E 016°36'0 0.8
2018-Apr-19 13:00N 68°47' E 016°37'1 2.7
2018-Apr-19 12:30N 68°47' E 016°33'0 0.0
2018-Apr-19 12:00N 68°47' E 016°33'0 0.0
2018-Apr-19 11:30N 68°47' E 016°33'0 0.0
2018-Apr-19 11:00N 68°47' E 016°33'0 0.0
2018-Apr-19 10:30N 68°47' E 016°33'0 0.0
2018-Apr-19 10:00N 68°47' E 016°33'0 0.4
2018-Apr-19 09:30N 68°47' E 016°33'0 0.0
2018-Apr-19 09:00N 68°47' E 016°33'0 0.0
2018-Apr-19 08:30N 68°47' E 016°33'0 0.0
2018-Apr-19 08:00N 68°47' E 016°33'0 0.0
2018-Apr-19 07:30N 68°47' E 016°33'0 0.0
2018-Apr-19 07:00N 68°47' E 016°33'0 0.0
2018-Apr-19 06:29N 68°47' E 016°33'0 0.0
2018-Apr-19 06:00N 68°47' E 016°33'0 0.0
2018-Apr-19 05:30N 68°47' E 016°33'0 0.0
2018-Apr-19 04:59N 68°47' E 016°33'0 0.0
2018-Apr-19 04:30N 68°47' E 016°33'0 0.0
2018-Apr-19 04:00N 68°47' E 016°33'0 0.0
2018-Apr-19 03:30N 68°47' E 016°33'0 0.0
2018-Apr-19 03:00N 68°47' E 016°33'0 0.0
2018-Apr-19 02:30N 68°47' E 016°33'0 0.0
2018-Apr-19 02:00N 68°47' E 016°33'0 0.0
2018-Apr-19 01:30N 68°47' E 016°33'0 0.0
2018-Apr-19 01:00N 68°47' E 016°33'0 0.0
2018-Apr-19 00:30N 68°47' E 016°33'0 0.0
2018-Apr-19 00:00N 68°47' E 016°33'0 0.0
2018-Apr-18 23:30N 68°47' E 016°33'0 0.0
2018-Apr-18 23:00N 68°47' E 016°33'0 0.0
2018-Apr-18 22:30N 68°47' E 016°33'0 0.0
2018-Apr-18 22:00N 68°47' E 016°33'0 0.0
2018-Apr-18 21:29N 68°47' E 016°33'0 0.0
2018-Apr-18 20:59N 68°47' E 016°33'0 0.0
2018-Apr-18 20:30N 68°47' E 016°33'0 0.0
2018-Apr-18 20:00N 68°47' E 016°33'0 0.0
2018-Apr-18 19:30N 68°47' E 016°33'0 0.0
2018-Apr-18 19:00N 68°47' E 016°33'0 0.0
2018-Apr-18 18:30N 68°47' E 016°33'0 0.0
2018-Apr-18 18:00N 68°47' E 016°33'0 0.0
2018-Apr-18 17:30N 68°47' E 016°33'0 0.0
2018-Apr-18 17:00N 68°47' E 016°33'0 0.0
2018-Apr-18 16:30N 68°47' E 016°33'0 0.0
2018-Apr-18 15:58N 68°47' E 016°33'0 0.0
2018-Apr-18 15:30N 68°47' E 016°33'0 0.0
2018-Apr-18 14:59N 68°47' E 016°33'0 0.0
2018-Apr-18 14:30N 68°47' E 016°33'0 0.0
2018-Apr-18 14:00N 68°47' E 016°33'0 0.0
2018-Apr-18 13:29N 68°47' E 016°33'0 0.0
2018-Apr-18 13:00N 68°47' E 016°33'0 0.0
2018-Apr-18 12:30N 68°47' E 016°33'0 0.0
2018-Apr-18 12:00N 68°47' E 016°33'0 0.0
2018-Apr-18 11:30N 68°47' E 016°33'0 0.0
2018-Apr-18 11:00N 68°47' E 016°33'0 0.0
2018-Apr-18 10:30N 68°47' E 016°33'0 0.0
2018-Apr-18 10:00N 68°47' E 016°33'0 0.0
2018-Apr-18 09:29N 68°47' E 016°33'0 0.0
2018-Apr-18 09:00N 68°47' E 016°33'0 0.0
2018-Apr-18 08:30N 68°47' E 016°33'0 0.0
2018-Apr-18 08:00N 68°47' E 016°33'0 0.0
2018-Apr-18 07:30N 68°47' E 016°33'0 0.0
2018-Apr-18 07:00N 68°47' E 016°33'0 0.0
2018-Apr-18 06:30N 68°47' E 016°33'0 0.0
2018-Apr-18 06:00N 68°47' E 016°33'0 0.0
2018-Apr-18 05:30N 68°47' E 016°33'0 0.0
2018-Apr-18 05:00N 68°47' E 016°33'0 0.0
2018-Apr-18 04:30N 68°47' E 016°33'0 0.0
2018-Apr-18 04:00N 68°47' E 016°33'0 0.0
2018-Apr-18 03:30N 68°47' E 016°33'0 0.0
2018-Apr-18 03:00N 68°47' E 016°33'0 0.0
2018-Apr-18 02:30N 68°47' E 016°33'0 0.0
2018-Apr-18 02:00N 68°47' E 016°33'0 0.0
2018-Apr-18 01:29N 68°47' E 016°33'0 0.0
2018-Apr-18 01:00N 68°47' E 016°33'0 0.0
2018-Apr-18 00:30N 68°47' E 016°33'0 0.0
2018-Apr-18 00:00N 68°47' E 016°33'0 0.0
2018-Apr-17 23:30N 68°47' E 016°33'0 0.0
2018-Apr-17 22:59N 68°47' E 016°33'0 0.0
2018-Apr-17 22:29N 68°47' E 016°33'0 0.0
2018-Apr-17 22:00N 68°47' E 016°33'0 0.0
2018-Apr-17 21:30N 68°47' E 016°33'0 0.0
2018-Apr-17 21:00N 68°47' E 016°33'0 0.0
2018-Apr-17 20:30N 68°47' E 016°33'0 0.0
2018-Apr-17 19:59N 68°47' E 016°33'0 0.0
2018-Apr-17 19:30N 68°47' E 016°33'0 0.0
2018-Apr-17 19:00N 68°47' E 016°33'0 0.0
2018-Apr-17 18:30N 68°47' E 016°33'0 0.0
2018-Apr-17 18:00N 68°47' E 016°33'0 0.0
2018-Apr-17 17:30N 68°47' E 016°33'0 0.0
2018-Apr-17 16:59N 68°47' E 016°33'0 0.0
2018-Apr-17 16:30N 68°47' E 016°33'0 0.0
2018-Apr-17 15:59N 68°47' E 016°33'0 0.0
2018-Apr-17 15:30N 68°47' E 016°33'0 0.0
2018-Apr-17 15:00N 68°47' E 016°33'0 0.0
2018-Apr-17 14:29N 68°47' E 016°33'0 0.0
2018-Apr-17 14:00N 68°47' E 016°33'0 0.0
2018-Apr-17 13:30N 68°47' E 016°33'0 0.0
2018-Apr-17 13:00N 68°47' E 016°33'0 0.0
2018-Apr-17 12:30N 68°47' E 016°33'0 0.0
2018-Apr-17 12:00N 68°47' E 016°33'0 0.0
2018-Apr-17 11:30N 68°47' E 016°33'0 0.0
2018-Apr-17 11:00N 68°47' E 016°33'0 0.0
2018-Apr-17 10:30N 68°47' E 016°33'0 0.0
2018-Apr-17 10:00N 68°47' E 016°33'0 0.0
2018-Apr-17 09:30N 68°47' E 016°33'0 0.0
2018-Apr-17 08:59N 68°47' E 016°33'0 0.0
2018-Apr-17 08:30N 68°47' E 016°33'0 0.0
2018-Apr-17 08:00N 68°47' E 016°33'0 0.0
2018-Apr-17 07:30N 68°47' E 016°33'0 0.0
2018-Apr-17 07:00N 68°47' E 016°33'0 0.0
2018-Apr-17 06:30N 68°47' E 016°33'0 0.0
2018-Apr-17 06:00N 68°47' E 016°33'0 0.0
2018-Apr-17 05:30N 68°47' E 016°33'0 0.0
2018-Apr-17 05:00N 68°47' E 016°33'0 0.0
2018-Apr-17 04:30N 68°47' E 016°33'0 0.0
2018-Apr-17 04:00N 68°47' E 016°33'0 0.0
2018-Apr-17 03:30N 68°47' E 016°33'0 0.0
2018-Apr-17 03:00N 68°47' E 016°33'0 0.0
2018-Apr-17 02:30N 68°47' E 016°33'0 0.0
2018-Apr-17 01:59N 68°47' E 016°33'0 0.0
2018-Apr-17 01:29N 68°47' E 016°33'0 0.0
2018-Apr-17 01:00N 68°47' E 016°33'0 0.0
2018-Apr-17 00:30N 68°47' E 016°33'0 0.0
2018-Apr-17 00:00N 68°47' E 016°33'0 0.0
2018-Apr-16 23:30N 68°47' E 016°33'0 0.0
2018-Apr-16 23:00N 68°47' E 016°33'0 0.0
2018-Apr-16 22:30N 68°47' E 016°33'0 0.0
2018-Apr-16 22:00N 68°47' E 016°33'0 0.0
2018-Apr-16 21:29N 68°47' E 016°33'0 0.0
2018-Apr-16 21:00N 68°47' E 016°33'0 0.0
2018-Apr-16 20:29N 68°47' E 016°33'0 0.0
2018-Apr-16 20:00N 68°47' E 016°33'0 0.0
2018-Apr-16 19:30N 68°47' E 016°33'0 0.0
2018-Apr-16 18:59N 68°47' E 016°33'0 0.0
2018-Apr-16 18:30N 68°47' E 016°33'0 0.0
2018-Apr-16 18:00N 68°47' E 016°33'0 0.0
2018-Apr-16 17:30N 68°47' E 016°33'  
Track history (hours):
 
Tides and Currents Weather Stations Pressure Air Temp Water Temp Dewpoint Dewpoint Depression Visibility Wind Speed Wind Dir Waves Ship Positions

Biotrans

Last reported at 2018-Apr-26 17:00 UTC. Time now 2018-Apr-26 17:05 UTC.
Position N 63°34' E 009°21'.

Length 55 m; draft 5.5 m.

Type: Cargo ship. MMSI: 259260000.

Date/timePositionNaut miles runAvg speedWind from/ knotsBaromVisibWave heightAir tempDewpointWater temp
2018-Apr-26 17:00N 63°34' E 009°21'4 8.8
2018-Apr-26 16:30N 63°37' E 009°28'510.0
2018-Apr-26 16:00N 63°42' E 009°30'5 9.3
2018-Apr-26 15:29N 63°45' E 009°39'3 6.3
2018-Apr-26 14:59N 63°46' E 009°46'0 0.0
2018-Apr-26 14:30N 63°46' E 009°46'0 0.0
2018-Apr-26 13:59N 63°46' E 009°46'0 0.0
2018-Apr-26 13:30N 63°46' E 009°46'0 0.0
2018-Apr-26 13:00N 63°46' E 009°46'0 0.0
2018-Apr-26 12:30N 63°46' E 009°46'0 0.0
2018-Apr-26 12:00N 63°46' E 009°46'0 0.0
2018-Apr-26 11:30N 63°46' E 009°46'0 0.0
2018-Apr-26 11:00N 63°46' E 009°46'0 0.0
2018-Apr-26 10:29N 63°46' E 009°46'0 0.0
2018-Apr-26 09:59N 63°46' E 009°46'0 0.0
2018-Apr-26 09:29N 63°46' E 009°46'0 0.0
2018-Apr-26 09:00N 63°46' E 009°46'0 0.0
2018-Apr-26 08:30N 63°46' E 009°46'0 0.0
2018-Apr-26 08:00N 63°46' E 009°46'0 0.0
2018-Apr-26 07:29N 63°46' E 009°46'0 0.2
2018-Apr-26 06:59N 63°46' E 009°45'0 0.0
2018-Apr-26 06:28N 63°46' E 009°45'0 0.0
2018-Apr-26 06:00N 63°46' E 009°45'0 0.0
2018-Apr-26 05:30N 63°46' E 009°45'0 0.0
2018-Apr-26 05:00N 63°46' E 009°45'0 0.0
2018-Apr-26 04:29N 63°46' E 009°45'0 0.0
2018-Apr-26 04:00N 63°46' E 009°45'0 0.0
2018-Apr-26 03:30N 63°46' E 009°45'0 0.0
2018-Apr-26 03:00N 63°46' E 009°45'0 0.0
2018-Apr-26 02:30N 63°46' E 009°45'0 0.0
2018-Apr-26 01:58N 63°46' E 009°45'0 0.0
2018-Apr-26 01:30N 63°46' E 009°45'0 0.0
2018-Apr-26 01:00N 63°46' E 009°45'0 0.0
2018-Apr-26 00:30N 63°46' E 009°45'0 0.5
2018-Apr-26 00:00N 63°46' E 009°45'0 0.4
2018-Apr-25 23:30N 63°46' E 009°44'0 0.0
2018-Apr-25 23:00N 63°46' E 009°44'0 0.0
2018-Apr-25 22:29N 63°46' E 009°44'0 0.1
2018-Apr-25 22:00N 63°46' E 009°44'0 0.2
2018-Apr-25 21:29N 63°46' E 009°44'1 1.9
2018-Apr-25 21:00N 63°45' E 009°42'4 7.8
2018-Apr-25 20:30N 63°45' E 009°33'4 8.3
2018-Apr-25 20:00N 63°49' E 009°36'5 9.1
2018-Apr-25 19:30N 63°52' E 009°43'4 8.6
2018-Apr-25 19:00N 63°54' E 009°51'1 2.0
2018-Apr-25 18:30N 63°53' E 009°52'0 0.0
2018-Apr-25 18:00N 63°53' E 009°52'0 0.0
2018-Apr-25 17:30N 63°53' E 009°52'0 0.0
2018-Apr-25 17:00N 63°53' E 009°52'0 0.0
2018-Apr-25 16:30N 63°53' E 009°52'0 0.0
2018-Apr-25 16:00N 63°53' E 009°52'0 0.0
2018-Apr-25 15:30N 63°53' E 009°52'0 0.0
2018-Apr-25 15:00N 63°53' E 009°52'0 0.0
2018-Apr-25 14:30N 63°53' E 009°52'0 0.0
2018-Apr-25 14:00N 63°53' E 009°52'0 0.0
2018-Apr-25 13:30N 63°53' E 009°52'0 0.1
2018-Apr-25 13:00N 63°53' E 009°52'3 6.5
2018-Apr-25 12:29N 63°57' E 009°54'510.1
2018-Apr-25 12:00N 64°01' E 009°59'4 7.4
2018-Apr-25 11:30N 64°04' E 010°01'4 8.6
2018-Apr-25 11:00N 64°08' E 010°06'4 8.7
2018-Apr-25 10:30N 64°12' E 010°11'4 8.6
2018-Apr-25 10:00N 64°15' E 010°18'4 7.9
2018-Apr-25 09:30N 64°18' E 010°23'4 7.9
2018-Apr-25 09:00N 64°22' E 010°27'4 8.0
2018-Apr-25 08:30N 64°26' E 010°27'3 6.3
2018-Apr-25 08:00N 64°28' E 010°31'3 6.8
2018-Apr-25 07:30N 64°31' E 010°35'3 6.6
2018-Apr-25 07:00N 64°34' E 010°38'3 6.3
2018-Apr-25 06:30N 64°37' E 010°42'3 6.0
2018-Apr-25 05:59N 64°40' E 010°46'2 4.9
2018-Apr-25 05:30N 64°41' E 010°50'2 4.7
2018-Apr-25 05:00N 64°43' E 010°54'3 6.2
2018-Apr-25 04:29N 64°45' E 010°60'4 7.4
2018-Apr-25 04:00N 64°47' E 011°05'4 7.8
2018-Apr-25 03:30N 64°50' E 011°12'3 6.8
2018-Apr-25 03:00N 64°53' E 011°17'4 7.5
2018-Apr-25 02:30N 64°55' E 011°24'4 7.8
2018-Apr-25 02:00N 64°57' E 011°31'4 8.0
2018-Apr-25 01:30N 65°00' E 011°38'4 7.8
2018-Apr-25 01:00N 65°03' E 011°44'4 8.1
2018-Apr-25 00:30N 65°07' E 011°49'4 8.5
2018-Apr-25 00:00N 65°11' E 011°51'4 8.2
2018-Apr-24 23:30N 65°15' E 011°55'4 7.9
2018-Apr-24 23:00N 65°18' E 011°59'4 7.9
2018-Apr-24 22:30N 65°22' E 012°04'4 7.3
2018-Apr-24 22:00N 65°24' E 011°58'4 6.9
2018-Apr-24 21:30N 65°28' E 011°57'4 7.7
2018-Apr-24 21:00N 65°31' E 012°01'4 7.6
2018-Apr-24 20:30N 65°34' E 012°07'4 7.8
2018-Apr-24 20:00N 65°38' E 012°12'4 8.0
2018-Apr-24 19:30N 65°41' E 012°15'4 7.8
2018-Apr-24 18:58N 65°45' E 012°18'4 8.0
2018-Apr-24 18:30N 65°49' E 012°21'4 8.6
2018-Apr-24 17:59N 65°53' E 012°22'3 6.6
2018-Apr-24 17:30N 65°57' E 012°22'4 8.4
2018-Apr-24 17:00N 65°55' E 012°13'0 0.7
2018-Apr-24 16:30N 65°54' E 012°13'0 0.0
2018-Apr-24 16:00N 65°54' E 012°13'0 0.7
2018-Apr-24 15:29N 65°55' E 012°13'4 8.7
2018-Apr-24 14:59N 65°57' E 012°22'4 8.9
2018-Apr-24 14:30N 65°60' E 012°30'5 9.0
2018-Apr-24 14:00N 66°03' E 012°38'5 9.2
2018-Apr-24 13:30N 66°07' E 012°45'5 9.3
2018-Apr-24 13:00N 66°11' E 012°50'5 9.5
2018-Apr-24 12:30N 66°15' E 012°55'5 9.4
2018-Apr-24 12:00N 66°20' E 012°56'4 8.8
2018-Apr-24 11:30N 66°24' E 012°58'510.0
2018-Apr-24 11:00N 66°29' E 012°59'4 8.7
2018-Apr-24 10:30N 66°33' E 013°03'5 9.2
2018-Apr-24 10:00N 66°38' E 013°05'4 8.6
2018-Apr-24 09:30N 66°42' E 013°09'4 8.6
2018-Apr-24 09:00N 66°46' E 013°13'5 9.1
2018-Apr-24 08:30N 66°50' E 013°16'4 8.9
2018-Apr-24 08:00N 66°53' E 013°24'4 8.1
2018-Apr-24 07:30N 66°57' E 013°29'4 8.6
2018-Apr-24 07:00N 66°60' E 013°37'5 9.2
2018-Apr-24 06:30N 67°02' E 013°47'4 7.1
2018-Apr-24 06:01N 67°05' E 013°52'0 0.8
2018-Apr-24 05:30N 67°05' E 013°51'0 0.3
2018-Apr-24 05:00N 67°05' E 013°51'4 7.5
2018-Apr-24 04:30N 67°07' E 013°60'4 7.9
2018-Apr-24 04:00N 67°10' E 014°04'4 8.0
2018-Apr-24 03:30N 67°14' E 014°09'4 8.0
2018-Apr-24 03:00N 67°17' E 014°15'4 8.3
2018-Apr-24 02:30N 67°21' E 014°21'4 7.9
2018-Apr-24 02:00N 67°24' E 014°26'4 8.1
2018-Apr-24 01:30N 67°28' E 014°29'4 8.1
2018-Apr-24 01:00N 67°32' E 014°30'4 8.1
2018-Apr-24 00:30N 67°36' E 014°30'4 8.1
2018-Apr-24 00:00N 67°40' E 014°31'4 8.2
2018-Apr-23 23:30N 67°44' E 014°31'4 7.8
2018-Apr-23 23:00N 67°48' E 014°32'4 8.4
2018-Apr-23 22:30N 67°51' E 014°40'4 8.0
2018-Apr-23 22:00N 67°55' E 014°45'4 8.2
2018-Apr-23 21:30N 67°58' E 014°51'4 8.6
2018-Apr-23 21:00N 68°01' E 015°00'5 9.0
2018-Apr-23 20:30N 68°03' E 015°11'3 6.1
2018-Apr-23 20:00N 68°00' E 015°16'0 0.0
2018-Apr-23 19:30N 68°00' E 015°16'0 0.8
2018-Apr-23 19:00N 68°00' E 015°16'2 3.5
2018-Apr-23 18:30N 68°01' E 015°20'0 0.0
2018-Apr-23 18:00N 68°01' E 015°20'0 0.0
2018-Apr-23 17:30N 68°01' E 015°20'2 3.3
2018-Apr-23 17:00N 68°02' E 015°17'4 8.9
2018-Apr-23 16:29N 68°06' E 015°15'4 9.2
2018-Apr-23 16:00N 68°09' E 015°24'5 9.1
2018-Apr-23 15:30N 68°12' E 015°34'4 8.5
2018-Apr-23 15:00N 68°15' E 015°43'4 8.2
2018-Apr-23 14:30N 68°18' E 015°50'4 8.3
2018-Apr-23 14:00N 68°21' E 015°58'4 7.9
2018-Apr-23 13:30N 68°24' E 016°02'4 8.3
2018-Apr-23 13:00N 68°28' E 016°06'4 8.5
2018-Apr-23 12:30N 68°32' E 016°12'510.6
2018-Apr-23 12:00N 68°33' E 016°26'5 9.3
2018-Apr-23 11:30N 68°37' E 016°34'5 9.0
2018-Apr-23 11:00N 68°41' E 016°40'5 9.1
2018-Apr-23 10:30N 68°45' E 016°45'4 8.9
2018-Apr-23 10:00N 68°49' E 016°51'4 8.9
2018-Apr-23 09:30N 68°53' E 016°58'5 9.1
2018-Apr-23 09:00N 68°56' E 017°05'5 9.0
2018-Apr-23 08:29N 68°60' E 017°14'4 9.3
2018-Apr-23 08:00N 69°04' E 017°21'4 8.7
2018-Apr-23 07:30N 69°06' E 017°30'5 9.2
2018-Apr-23 07:00N 69°08' E 017°42'5 9.3
2018-Apr-23 06:29N 69°10' E 017°55'3 6.2
2018-Apr-23 05:58N 69°13' E 017°58'4 8.6
2018-Apr-23 05:30N 69°17' E 017°58'4 8.4
2018-Apr-23 05:00N 69°21' E 018°04'4 8.5
2018-Apr-23 04:30N 69°25' E 018°07'4 8.6
2018-Apr-23 04:00N 69°29' E 018°10'5 9.1
2018-Apr-23 03:29N 69°31' E 018°22'4 9.0
2018-Apr-23 03:00N 69°32' E 018°34'4 7.7
2018-Apr-23 02:30N 69°33' E 018°45'4 7.3
2018-Apr-23 02:00N 69°36' E 018°52'4 8.3
2018-Apr-23 01:30N 69°39' E 018°59'4 8.8
2018-Apr-23 01:00N 69°43' E 019°04'4 8.5
2018-Apr-23 00:30N 69°46' E 019°13'5 9.0
2018-Apr-22 23:59N 69°48' E 019°25'4 9.1
2018-Apr-22 23:30N 69°50' E 019°37'5 9.3
2018-Apr-22 23:00N 69°52' E 019°48'5 9.5
2018-Apr-22 22:30N 69°55' E 019°59'5 9.5
2018-Apr-22 22:00N 69°58' E 020°10'5 9.3
2018-Apr-22 21:30N 70°00' E 020°22'5 9.6
2018-Apr-22 21:00N 70°01' E 020°36'5 9.5
2018-Apr-22 20:30N 70°03' E 020°49'4 9.0
2018-Apr-22 20:00N 70°06' E 020°58'5 9.8
2018-Apr-22 19:30N 70°11' E 021°04'510.0
2018-Apr-22 19:00N 70°15' E 021°12'510.2
2018-Apr-22 18:30N 70°18' E 021°24'5 9.5
2018-Apr-22 18:00N 70°21' E 021°34'4 8.7
2018-Apr-22 17:30N 70°24' E 021°44'5 9.0
2018-Apr-22 17:00N 70°25' E 021°57'5 9.0
2018-Apr-22 16:30N 70°26' E 022°10'4 8.9
2018-Apr-22 16:00N 70°27' E 022°23'5 9.6
2018-Apr-22 15:30N 70°29' E 022°37'5 9.6
2018-Apr-22 14:59N 70°30' E 022°51'4 8.8
2018-Apr-22 14:30N 70°32' E 023°02'5 9.0
2018-Apr-22 13:58N 70°35' E 023°13'4 9.4
2018-Apr-22 13:30N 70°38' E 023°24'5 9.2
2018-Apr-22 13:00N 70°38' E 023°37'1 1.8
2018-Apr-22 12:30N 70°38' E 023°40'0 0.0
2018-Apr-22 12:00N 70°38' E 023°40'0 0.0
2018-Apr-22 11:30N 70°38' E 023°40'0 0.0
2018-Apr-22 11:00N 70°38' E 023°40'0 0.0
2018-Apr-22 10:30N 70°38' E 023°40'0 0.0
2018-Apr-22 10:00N 70°38' E 023°40'0 0.0
2018-Apr-22 09:29N 70°38' E 023°40'0 0.0
2018-Apr-22 09:00N 70°38' E 023°40'0 0.0
2018-Apr-22 08:30N 70°38' E 023°40'0 0.3
2018-Apr-22 08:00N 70°38' E 023°40'3 6.9
2018-Apr-22 07:30N 70°41' E 023°34'4 8.7
2018-Apr-22 07:00N 70°45' E 023°39'4 8.9
2018-Apr-22 06:30N 70°48' E 023°48'5 9.3
2018-Apr-22 06:00N 70°52' E 023°59'4 8.9
2018-Apr-22 05:30N 70°54' E 024°09'4 8.6
2018-Apr-22 05:00N 70°57' E 024°18'5 9.3
2018-Apr-22 04:29N 71°01' E 024°29'4 7.8
2018-Apr-22 04:00N 71°01' E 024°40'4 8.0
2018-Apr-22 03:29N 70°60' E 024°52'4 8.2
2018-Apr-22 02:59N 70°59' E 025°05'4 8.7
2018-Apr-22 02:29N 70°59' E 025°18'4 8.0
2018-Apr-22 02:00N 70°57' E 025°28'4 7.4
2018-Apr-22 01:30N 70°54' E 025°32'2 4.9
2018-Apr-22 01:00N 70°52' E 025°27'0 0.1
2018-Apr-22 00:30N 70°52' E 025°27'4 7.7
2018-Apr-22 00:00N 70°55' E 025°33'3 6.8
2018-Apr-21 23:30N 70°58' E 025°26'4 8.9
2018-Apr-21 23:00N 70°59' E 025°13'5 9.1
2018-Apr-21 22:28N 70°59' E 024°59'4 8.8
2018-Apr-21 22:00N 71°00' E 024°46'4 8.5
2018-Apr-21 21:30N 71°02' E 024°34'4 8.8
2018-Apr-21 21:00N 70°58' E 024°27'5 9.5
2018-Apr-21 20:30N 70°54' E 024°21'5 9.3
2018-Apr-21 20:00N 70°50' E 024°13'5 9.5
2018-Apr-21 19:28N 70°45' E 024°12'4 9.1
2018-Apr-21 19:00N 70°40' E 024°10'5 9.2
2018-Apr-21 18:30N 70°36' E 024°08'2 4.0
2018-Apr-21 17:59N 70°34' E 024°04'0 0.4
2018-Apr-21 17:30N 70°34' E 024°04'5 9.2
2018-Apr-21 16:58N 70°30' E 023°55'5 9.7
2018-Apr-21 16:29N 70°29' E 023°42'1 2.7
2018-Apr-21 16:00N 70°29' E 023°38'1 2.5
2018-Apr-21 15:29N 70°27' E 023°39'4 8.5
2018-Apr-21 14:59N 70°24' E 023°34'5 9.3
2018-Apr-21 14:30N 70°20' E 023°26'510.3
2018-Apr-21 14:00N 70°16' E 023°16'4 8.5
2018-Apr-21 13:29N 70°13' E 023°09'511.0
2018-Apr-21 13:00N 70°07' E 023°07'611.0
2018-Apr-21 12:29N 70°02' E 023°08'5 9.2
2018-Apr-21 11:59N 69°57' E 023°06'0 0.2
2018-Apr-21 11:30N 69°57' E 023°06'0 0.0
2018-Apr-21 11:00N 69°57' E 023°06'0 0.0
2018-Apr-21 10:29N 69°57' E 023°06'0 0.2
2018-Apr-21 10:00N 69°57' E 023°06'3 6.8
2018-Apr-21 09:30N 70°00' E 023°08'4 8.5
2018-Apr-21 08:59N 70°05' E 023°05'4 8.5
2018-Apr-21 08:29N 70°09' E 023°02'4 8.1
2018-Apr-21 08:00N 70°12' E 022°57'5 8.8
2018-Apr-21 07:29N 70°14' E 022°44'4 8.4
2018-Apr-21 07:00N 70°15' E 022°33'4 8.4
2018-Apr-21 06:30N 70°16' E 022°21'5 9.3
2018-Apr-21 05:59N 70°11' E 022°17'2 4.7
2018-Apr-21 05:30N 70°09' E 022°19'0 0.1
2018-Apr-21 05:00N 70°09' E 022°19'2 3.4
2018-Apr-21 04:30N 70°08' E 022°14'0 0.8
2018-Apr-21 04:00N 70°09' E 022°15'4 8.9
2018-Apr-21 03:30N 70°13' E 022°18'4 8.5
2018-Apr-21 03:00N 70°17' E 022°18'5 9.3
2018-Apr-21 02:30N 70°19' E 022°06'4 8.0
2018-Apr-21 02:00N 70°19' E 021°54'5 9.2
2018-Apr-21 01:29N 70°16' E 021°45'2 5.0
2018-Apr-21 01:00N 70°13' E 021°43'0 0.0
2018-Apr-21 00:30N 70°13' E 021°43'1 1.7
2018-Apr-21 00:00N 70°14' E 021°44'1 1.8
2018-Apr-20 23:29N 70°15' E 021°43'0 0.1
2018-Apr-20 22:58N 70°15' E 021°42'3 6.6
2018-Apr-20 22:30N 70°18' E 021°39'3 6.8
2018-Apr-20 22:00N 70°20' E 021°34'4 8.7
2018-Apr-20 21:30N 70°18' E 021°24'4 8.7
2018-Apr-20 21:00N 70°15' E 021°13'4 7.5
2018-Apr-20 20:30N 70°11' E 021°12'5 9.0
2018-Apr-20 20:00N 70°08' E 021°21'5 9.1
2018-Apr-20 19:30N 70°05' E 021°31'6 9.0
2018-Apr-20 18:47N 70°01' E 021°46'3 9.0
2018-Apr-20 18:30N 69°59' E 021°50'2 2.4
2018-Apr-20 17:41N 69°57' E 021°53'1 5.1
2018-Apr-20 17:28N 69°58' E 021°50'4 7.6
2018-Apr-20 16:57N 69°59' E 021°39'4 8.5
2018-Apr-20 16:30N 70°01' E 021°29'4 8.1
2018-Apr-20 16:00N 70°02' E 021°18'4 7.8
2018-Apr-20 15:30N 70°03' E 021°07'4 8.1
2018-Apr-20 14:59N 70°03' E 020°55'5 9.9
2018-Apr-20 14:30N 70°02' E 020°42'5 9.2
2018-Apr-20 14:00N 70°00' E 020°29'5 9.2
2018-Apr-20 13:30N 69°59' E 020°16'5 9.1
2018-Apr-20 13:00N 69°57' E 020°05'4 8.9
2018-Apr-20 12:30N 69°54' E 019°55'510.2
2018-Apr-20 12:00N 69°51' E 019°43'610.9
2018-Apr-20 11:29N 69°49' E 019°28'511.2
2018-Apr-20 11:00N 69°46' E 019°13'5 9.3
2018-Apr-20 10:30N 69°43' E 019°04'5 9.2
2018-Apr-20 09:59N 69°39' E 018°58'4 8.9
2018-Apr-20 09:30N 69°35' E 018°51'4 8.6
2018-Apr-20 09:00N 69°33' E 018°41'4 8.7
2018-Apr-20 08:30N 69°32' E 018°29'4 8.6
2018-Apr-20 08:00N 69°31' E 018°17'4 7.6
2018-Apr-20 07:30N 69°31' E 018°06'4 7.9
2018-Apr-20 07:00N 69°34' E 017°58'4 7.8
2018-Apr-20 06:30N 69°37' E 017°50'4 7.6
2018-Apr-20 05:59N 69°38' E 017°40'4 8.5
2018-Apr-20 05:30N 69°37' E 017°28'4 8.4
2018-Apr-20 04:59N 69°33' E 017°27'4 9.0
2018-Apr-20 04:30N 69°29' E 017°34'1 1.1
2018-Apr-20 04:00N 69°29' E 017°34'0 0.0
2018-Apr-20 03:30N 69°29' E 017°34'1 2.0
2018-Apr-20 02:59N 69°28' E 017°36'0 0.0
2018-Apr-20 02:30N 69°28' E 017°36'0 0.0
2018-Apr-20 02:00N 69°28' E 017°36'3 6.8
2018-Apr-20 01:30N 69°31' E 017°31'4 9.0
2018-Apr-20 01:00N 69°33' E 017°20'5 8.9
2018-Apr-20 00:29N 69°33' E 017°07'4 9.0
2018-Apr-20 00:00N 69°31' E 016°56'4 8.6
2018-Apr-19 23:30N 69°27' E 016°50'4 8.5
2018-Apr-19 23:00N 69°23' E 016°49'4 8.8
2018-Apr-19 22:29N 69°18' E 016°50'4 8.8
2018-Apr-19 22:00N 69°14' E 016°52'4 8.6
2018-Apr-19 21:29N 69°10' E 016°50'4 9.0
2018-Apr-19 21:00N 69°05' E 016°46'4 8.5
2018-Apr-19 20:30N 69°01' E 016°48'4 8.6
2018-Apr-19 19:59N 68°60' E 016°59'4 8.9
2018-Apr-19 19:29N 69°00' E 017°12'3 5.2
2018-Apr-19 19:00N 69°02' E 017°16'0 0.3
2018-Apr-19 18:30N 69°02' E 017°16'3 6.9
2018-Apr-19 17:59N 68°59' E 017°10'4 8.9
2018-Apr-19 17:30N 68°58' E 016°59'5 9.0
2018-Apr-19 17:00N 68°56' E 016°47'1 2.8
2018-Apr-19 16:29N 68°56' E 016°43'2 3.8
2018-Apr-19 16:00N 68°54' E 016°41'5 9.2
2018-Apr-19 15:30N 68°50' E 016°37'2 4.9
2018-Apr-19 15:00N 68°48' E 016°34'0 0.0
2018-Apr-19 14:30N 68°48' E 016°34'0 0.0
2018-Apr-19 14:00N 68°48' E 016°34'1 2.1
2018-Apr-19 13:30N 68°47' E 016°36'0 0.8
2018-Apr-19 13:00N 68°47' E 016°37'1 2.7
2018-Apr-19 12:30N 68°47' E 016°33'0 0.0
2018-Apr-19 12:00N 68°47' E 016°33'0 0.0
2018-Apr-19 11:30N 68°47' E 016°33'0 0.0
2018-Apr-19 11:00N 68°47' E 016°33'0 0.0
2018-Apr-19 10:30N 68°47' E 016°33'0 0.0
2018-Apr-19 10:00N 68°47' E 016°33'0 0.4
2018-Apr-19 09:30N 68°47' E 016°33'0 0.0
2018-Apr-19 09:00N 68°47' E 016°33'0 0.0
2018-Apr-19 08:30N 68°47' E 016°33'0 0.0
2018-Apr-19 08:00N 68°47' E 016°33'0 0.0
2018-Apr-19 07:30N 68°47' E 016°33'0 0.0
2018-Apr-19 07:00N 68°47' E 016°33'0 0.0
2018-Apr-19 06:29N 68°47' E 016°33'0 0.0
2018-Apr-19 06:00N 68°47' E 016°33'0 0.0
2018-Apr-19 05:30N 68°47' E 016°33'0 0.0
2018-Apr-19 04:59N 68°47' E 016°33'0 0.0
2018-Apr-19 04:30N 68°47' E 016°33'0 0.0
2018-Apr-19 04:00N 68°47' E 016°33'0 0.0
2018-Apr-19 03:30N 68°47' E 016°33'0 0.0
2018-Apr-19 03:00N 68°47' E 016°33'0 0.0
2018-Apr-19 02:30N 68°47' E 016°33'0 0.0
2018-Apr-19 02:00N 68°47' E 016°33'0 0.0
2018-Apr-19 01:30N 68°47' E 016°33'0 0.0
2018-Apr-19 01:00N 68°47' E 016°33'0 0.0
2018-Apr-19 00:30N 68°47' E 016°33'0 0.0
2018-Apr-19 00:00N 68°47' E 016°33'0 0.0
2018-Apr-18 23:30N 68°47' E 016°33'0 0.0
2018-Apr-18 23:00N 68°47' E 016°33'0 0.0
2018-Apr-18 22:30N 68°47' E 016°33'0 0.0
2018-Apr-18 22:00N 68°47' E 016°33'0 0.0
2018-Apr-18 21:29N 68°47' E 016°33'0 0.0
2018-Apr-18 20:59N 68°47' E 016°33'0 0.0
2018-Apr-18 20:30N 68°47' E 016°33'0 0.0
2018-Apr-18 20:00N 68°47' E 016°33'0 0.0
2018-Apr-18 19:30N 68°47' E 016°33'0 0.0
2018-Apr-18 19:00N 68°47' E 016°33'0 0.0
2018-Apr-18 18:30N 68°47' E 016°33'0 0.0
2018-Apr-18 18:00N 68°47' E 016°33'0 0.0
2018-Apr-18 17:30N 68°47' E 016°33'0 0.0
2018-Apr-18 17:00N 68°47' E 016°33'0 0.0
2018-Apr-18 16:30N 68°47' E 016°33'0 0.0
2018-Apr-18 15:58N 68°47' E 016°33'0 0.0
2018-Apr-18 15:30N 68°47' E 016°33'0 0.0
2018-Apr-18 14:59N 68°47' E 016°33'0 0.0
2018-Apr-18 14:30N 68°47' E 016°33'0 0.0
2018-Apr-18 14:00N 68°47' E 016°33'0 0.0
2018-Apr-18 13:29N 68°47' E 016°33'0 0.0
2018-Apr-18 13:00N 68°47' E 016°33'0 0.0
2018-Apr-18 12:30N 68°47' E 016°33'0 0.0
2018-Apr-18 12:00N 68°47' E 016°33'0 0.0
2018-Apr-18 11:30N 68°47' E 016°33'0 0.0
2018-Apr-18 11:00N 68°47' E 016°33'0 0.0
2018-Apr-18 10:30N 68°47' E 016°33'0 0.0
2018-Apr-18 10:00N 68°47' E 016°33'0 0.0
2018-Apr-18 09:29N 68°47' E 016°33'0 0.0
2018-Apr-18 09:00N 68°47' E 016°33'0 0.0
2018-Apr-18 08:30N 68°47' E 016°33'0 0.0
2018-Apr-18 08:00N 68°47' E 016°33'0 0.0
2018-Apr-18 07:30N 68°47' E 016°33'0 0.0
2018-Apr-18 07:00N 68°47' E 016°33'0 0.0
2018-Apr-18 06:30N 68°47' E 016°33'0 0.0
2018-Apr-18 06:00N 68°47' E 016°33'0 0.0
2018-Apr-18 05:30N 68°47' E 016°33'0 0.0
2018-Apr-18 05:00N 68°47' E 016°33'0 0.0
2018-Apr-18 04:30N 68°47' E 016°33'0 0.0
2018-Apr-18 04:00N 68°47' E 016°33'0 0.0
2018-Apr-18 03:30N 68°47' E 016°33'0 0.0
2018-Apr-18 03:00N 68°47' E 016°33'0 0.0
2018-Apr-18 02:30N 68°47' E 016°33'0 0.0
2018-Apr-18 02:00N 68°47' E 016°33'0 0.0
2018-Apr-18 01:29N 68°47' E 016°33'0 0.0
2018-Apr-18 01:00N 68°47' E 016°33'0 0.0
2018-Apr-18 00:30N 68°47' E 016°33'0 0.0
2018-Apr-18 00:00N 68°47' E 016°33'0 0.0
2018-Apr-17 23:30N 68°47' E 016°33'0 0.0
2018-Apr-17 22:59N 68°47' E 016°33'0 0.0
2018-Apr-17 22:29N 68°47' E 016°33'0 0.0
2018-Apr-17 22:00N 68°47' E 016°33'0 0.0
2018-Apr-17 21:30N 68°47' E 016°33'0 0.0
2018-Apr-17 21:00N 68°47' E 016°33'0 0.0
2018-Apr-17 20:30N 68°47' E 016°33'0 0.0
2018-Apr-17 19:59N 68°47' E 016°33'0 0.0
2018-Apr-17 19:30N 68°47' E 016°33'0 0.0
2018-Apr-17 19:00N 68°47' E 016°33'0 0.0
2018-Apr-17 18:30N 68°47' E 016°33'0 0.0
2018-Apr-17 18:00N 68°47' E 016°33'0 0.0
2018-Apr-17 17:30N 68°47' E 016°33'0 0.0
2018-Apr-17 16:59N 68°47' E 016°33'0 0.0
2018-Apr-17 16:30N 68°47' E 016°33'0 0.0
2018-Apr-17 15:59N 68°47' E 016°33'0 0.0
2018-Apr-17 15:30N 68°47' E 016°33'0 0.0
2018-Apr-17 15:00N 68°47' E 016°33'0 0.0
2018-Apr-17 14:29N 68°47' E 016°33'0 0.0
2018-Apr-17 14:00N 68°47' E 016°33'0 0.0
2018-Apr-17 13:30N 68°47' E 016°33'0 0.0
2018-Apr-17 13:00N 68°47' E 016°33'0 0.0
2018-Apr-17 12:30N 68°47' E 016°33'0 0.0
2018-Apr-17 12:00N 68°47' E 016°33'0 0.0
2018-Apr-17 11:30N 68°47' E 016°33'0 0.0
2018-Apr-17 11:00N 68°47' E 016°33'0 0.0
2018-Apr-17 10:30N 68°47' E 016°33'0 0.0
2018-Apr-17 10:00N 68°47' E 016°33'0 0.0
2018-Apr-17 09:30N 68°47' E 016°33'0 0.0
2018-Apr-17 08:59N 68°47' E 016°33'0 0.0
2018-Apr-17 08:30N 68°47' E 016°33'0 0.0
2018-Apr-17 08:00N 68°47' E 016°33'0 0.0
2018-Apr-17 07:30N 68°47' E 016°33'0 0.0
2018-Apr-17 07:00N 68°47' E 016°33'0 0.0
2018-Apr-17 06:30N 68°47' E 016°33'0 0.0
2018-Apr-17 06:00N 68°47' E 016°33'0 0.0
2018-Apr-17 05:30N 68°47' E 016°33'0 0.0
2018-Apr-17 05:00N 68°47' E 016°33'0 0.0
2018-Apr-17 04:30N 68°47' E 016°33'0 0.0
2018-Apr-17 04:00N 68°47' E 016°33'0 0.0
2018-Apr-17 03:30N 68°47' E 016°33'0 0.0
2018-Apr-17 03:00N 68°47' E 016°33'0 0.0
2018-Apr-17 02:30N 68°47' E 016°33'0 0.0
2018-Apr-17 01:59N 68°47' E 016°33'0 0.0
2018-Apr-17 01:29N 68°47' E 016°33'0 0.0
2018-Apr-17 01:00N 68°47' E 016°33'0 0.0
2018-Apr-17 00:30N 68°47' E 016°33'0 0.0
2018-Apr-17 00:00N 68°47' E 016°33'0 0.0
2018-Apr-16 23:30N 68°47' E 016°33'0 0.0
2018-Apr-16 23:00N 68°47' E 016°33'0 0.0
2018-Apr-16 22:30N 68°47' E 016°33'0 0.0
2018-Apr-16 22:00N 68°47' E 016°33'0 0.0
2018-Apr-16 21:29N 68°47' E 016°33'0 0.0
2018-Apr-16 21:00N 68°47' E 016°33'0 0.0
2018-Apr-16 20:29N 68°47' E 016°33'0 0.0
2018-Apr-16 20:00N 68°47' E 016°33'0 0.0
2018-Apr-16 19:30N 68°47' E 016°33'0 0.0
2018-Apr-16 18:59N 68°47' E 016°33'0 0.0
2018-Apr-16 18:30N 68°47' E 016°33'0 0.0
2018-Apr-16 18:00N 68°47' E 016°33'0 0.0
2018-Apr-16 17:30N 68°47' E 016°33'  

Dump ship's entire track history